Time;durP1;ratioP1;P1;durP2;ratioP2;P2;SDS_P1;SDS_P2;PMS_P1;PMS_P2;Temp;Humidity;BMP_temperature;BMP_pressure;BME280_temperature;BME280_humidity;BME280_pressure;Samples;Min_cycle;Max_cycle;Signal;HPM_P1;HPM_P2
2022/01/22 00:00:14;;;;;;;;;;;;;;;2.80;43.15;99557.41;4510315;31;34391;-81
2022/01/22 00:02:41;;;;;;;;;;;;;;;2.59;43.48;99559.81;4512135;31;33406;-81
2022/01/22 00:05:09;;;;;;;;;;;;;;;3.56;41.42;99547.41;4505102;31;33682;-81
2022/01/22 00:07:36;;;;;;;;;;;;;;;3.56;40.86;99526.91;4510307;31;35074;-82
2022/01/22 00:10:07;;;;;;;;;;;;;;;2.85;42.49;99543.19;4503701;31;34431;-83
2022/01/22 00:15:06;;;;;;;;;;;;;;;2.91;41.73;99528.97;4500542;31;34690;-81
2022/01/22 00:17:34;;;;;;;;;;;;;;;3.65;40.63;99538.47;4503046;31;34181;-81
2022/01/22 00:20:01;;;;;;;;;;;;;;;2.65;42.58;99545.63;4511790;31;34423;-80
2022/01/22 00:22:31;;;;;;;;;;;;;;;2.89;42.39;99529.72;4500703;31;33540;-82
2022/01/22 00:25:01;;;;;;;;;;;;;;;3.07;41.92;99537.41;4514040;31;33218;-82
2022/01/22 00:27:28;;;;;;;;;;;;;;;2.47;43.32;99543.84;4513407;31;34673;-82
2022/01/22 00:29:56;;;;;;;;;;;;;;;2.69;42.78;99539.00;4513122;31;35811;-82
2022/01/22 00:32:23;;;;;;;;;;;;;;;2.70;42.81;99535.63;4510231;31;35122;-82
2022/01/22 00:34:50;;;;;;;;;;;;;;;2.24;43.53;99537.53;4507264;31;33018;-82
2022/01/22 00:37:18;;;;;;;;;;;;;;;3.11;41.73;99531.66;4501948;31;35080;-82
2022/01/22 00:39:45;;;;;;;;;;;;;;;3.61;40.68;99541.72;4497003;31;34879;-81
2022/01/22 00:42:16;;;;;;;;;;;;;;;3.21;41.25;99528.69;4513029;31;34025;-80
2022/01/22 00:44:43;;;;;;;;;;;;;;;3.75;40.35;99537.22;4499743;31;33180;-81
2022/01/22 00:47:11;;;;;;;;;;;;;;;3.37;41.45;99535.41;4483553;31;34201;-83
2022/01/22 00:49:40;;;;;;;;;;;;;;;3.40;41.13;99536.44;4503555;31;34037;-82
2022/01/22 00:52:07;;;;;;;;;;;;;;;3.17;41.56;99534.47;4505389;31;34162;-82
2022/01/22 00:54:35;;;;;;;;;;;;;;;3.87;40.39;99532.66;4501375;31;33029;-84
2022/01/22 00:57:02;;;;;;;;;;;;;;;2.60;42.57;99518.91;4506398;31;33695;-83
2022/01/22 00:59:29;;;;;;;;;;;;;;;3.46;41.26;99524.75;4498351;31;35032;-82
2022/01/22 01:01:56;;;;;;;;;;;;;;;3.47;41.19;99514.56;4509007;31;33942;-82
2022/01/22 01:04:24;;;;;;;;;;;;;;;3.62;41.29;99515.25;4506986;31;34183;-84
2022/01/22 01:06:51;;;;;;;;;;;;;;;4.63;39.29;99506.84;4512722;31;33935;-83
2022/01/22 01:09:19;;;;;;;;;;;;;;;5.15;38.40;99500.38;4513072;31;33936;-82
2022/01/22 01:11:54;;;;;;;;;;;;;;;2.84;42.75;99506.47;4507242;31;34096;-83
2022/01/22 01:14:29;;;;;;;;;;;;;;;3.51;41.63;99495.06;4510068;31;34083;-83
2022/01/22 01:33:53;;;;;;;;;;;;;;;2.90;43.78;99435.03;4510079;31;34764;-82
2022/01/22 01:36:21;;;;;;;;;;;;;;;1.62;46.22;99426.09;4498875;31;32984;-82
2022/01/22 01:38:59;;;;;;;;;;;;;;;2.97;43.65;99427.66;4501715;31;34287;-83
2022/01/22 01:44:04;;;;;;;;;;;;;;;2.75;44.36;99416.38;4503118;31;34935;-81
2022/01/22 01:46:34;;;;;;;;;;;;;;;2.56;45.01;99418.88;4507204;31;33029;-81
2022/01/22 01:49:03;;;;;;;;;;;;;;;3.68;42.61;99406.97;4511633;31;34004;-82
2022/01/22 01:51:34;;;;;;;;;;;;;;;2.83;44.44;99392.03;4503554;31;34047;-81
2022/01/22 01:54:11;;;;;;;;;;;;;;;3.94;42.18;99387.59;4502430;31;35010;-81
2022/01/22 01:59:25;;;;;;;;;;;;;;;4.37;40.96;99376.53;4501589;31;34161;-84
2022/01/22 02:01:52;;;;;;;;;;;;;;;3.87;42.06;99371.06;4509808;31;34450;-84
2022/01/22 02:04:20;;;;;;;;;;;;;;;3.62;42.25;99358.00;4497160;31;33134;-84
2022/01/22 02:06:47;;;;;;;;;;;;;;;3.83;41.80;99355.47;4499201;31;33550;-84
2022/01/22 02:09:14;;;;;;;;;;;;;;;2.62;43.95;99342.41;4508788;31;34214;-83
2022/01/22 02:11:44;;;;;;;;;;;;;;;3.63;42.12;99331.53;4501506;31;34418;-83
2022/01/22 02:25:17;;;;;;;;;;;;;;;3.10;41.98;99323.25;4512910;31;34103;-85
2022/01/22 02:27:45;;;;;;;;;;;;;;;3.95;40.48;99324.34;4512415;31;33784;-83
2022/01/22 02:30:22;;;;;;;;;;;;;;;3.26;41.80;99327.41;4499394;31;34733;-83
2022/01/22 02:35:52;;;;;;;;;;;;;;;3.66;41.34;99319.72;4506469;31;34951;-83
2022/01/22 02:38:31;;;;;;;;;;;;;;;3.44;41.96;99318.75;4495114;31;32482;-84
2022/01/22 02:40:58;;;;;;;;;;;;;;;4.00;40.39;99307.44;4499516;31;34891;-83
2022/01/22 02:43:26;;;;;;;;;;;;;;;5.11;38.30;99298.03;4500472;31;34105;-83
2022/01/22 02:45:54;;;;;;;;;;;;;;;4.89;38.63;99311.81;4502013;31;36281;-84
2022/01/22 02:48:21;;;;;;;;;;;;;;;4.59;38.82;99316.66;4507920;31;34440;-84
2022/01/22 02:50:48;;;;;;;;;;;;;;;3.87;40.14;99306.94;4515381;31;33999;-80
2022/01/22 02:53:16;;;;;;;;;;;;;;;4.56;39.41;99311.41;4508641;31;35385;-81
2022/01/22 02:55:45;;;;;;;;;;;;;;;5.22;37.75;99301.88;4504696;31;34357;-83
2022/01/22 02:58:12;;;;;;;;;;;;;;;5.48;37.23;99309.66;4507824;31;33504;-84
2022/01/22 03:00:41;;;;;;;;;;;;;;;4.37;39.21;99314.94;4500998;31;34906;-84
2022/01/22 03:03:08;;;;;;;;;;;;;;;4.81;38.83;99308.97;4500174;31;35321;-84
2022/01/22 03:05:35;;;;;;;;;;;;;;;5.18;37.86;99301.72;4510055;31;34011;-84
2022/01/22 03:08:07;;;;;;;;;;;;;;;5.45;37.55;99294.97;4502460;31;33558;-81
2022/01/22 03:10:34;;;;;;;;;;;;;;;5.58;37.15;99280.88;4505437;31;34080;-82
2022/01/22 03:16:10;;;;;;;;;;;;;;;4.23;40.75;99285.28;4509802;31;33929;-82
2022/01/22 03:21:44;;;;;;;;;;;;;;;4.12;41.28;99282.28;4493126;31;35543;-82
2022/01/22 03:29:44;;;;;;;;;;;;;;;4.17;41.11;99278.22;4503509;31;33007;-84
2022/01/22 03:32:13;;;;;;;;;;;;;;;4.23;41.17;99275.00;4504716;31;34413;-83
2022/01/22 03:34:53;;;;;;;;;;;;;;;3.51;42.55;99264.38;4501918;31;35301;-84
2022/01/22 03:37:22;;;;;;;;;;;;;;;4.38;41.73;99278.19;4499708;31;33694;-85
2022/01/22 03:39:49;;;;;;;;;;;;;;;5.47;39.17;99261.63;4506896;31;33279;-81
2022/01/22 03:42:17;;;;;;;;;;;;;;;5.86;38.26;99267.22;4511121;31;34137;-84
2022/01/22 03:44:44;;;;;;;;;;;;;;;6.44;37.30;99263.09;4501714;31;34146;-83
2022/01/22 03:47:12;;;;;;;;;;;;;;;5.53;38.77;99259.25;4498403;31;33663;-83
2022/01/22 03:49:39;;;;;;;;;;;;;;;4.76;40.32;99256.53;4498036;31;33705;-84
2022/01/22 03:52:07;;;;;;;;;;;;;;;5.36;39.25;99244.13;4504106;31;34913;-83
2022/01/22 03:54:34;;;;;;;;;;;;;;;4.44;41.39;99239.91;4510419;31;35297;-83
2022/01/22 03:57:02;;;;;;;;;;;;;;;5.18;40.22;99233.19;4514229;31;33879;-83
2022/01/22 03:59:30;;;;;;;;;;;;;;;4.34;42.70;99237.81;4498897;31;32837;-83
2022/01/22 04:02:32;;;;;;;;;;;;;;;4.96;43.65;99243.53;4496351;31;33911;-83
2022/01/22 04:04:56;;;;;;;;;;;;;;;4.91;45.78;99239.94;4508988;31;34824;-84
2022/01/22 04:10:11;;;;;;;;;;;;;;;4.35;50.15;99252.38;4513705;31;32979;-84
2022/01/22 04:15:18;;;;;;;;;;;;;;;5.00;49.35;99233.44;4493010;31;33065;-85
2022/01/22 04:26:15;;;;;;;;;;;;;;;5.00;50.87;99235.09;4498906;31;34055;-84
2022/01/22 04:28:42;;;;;;;;;;;;;;;5.12;50.68;99230.44;4501680;31;33895;-85
2022/01/22 04:31:10;;;;;;;;;;;;;;;4.34;54.08;99242.94;4497845;31;34263;-83
2022/01/22 04:33:38;;;;;;;;;;;;;;;4.53;53.79;99239.37;4504892;31;34147;-81
2022/01/22 04:36:05;;;;;;;;;;;;;;;4.07;54.95;99243.62;4500323;31;35156;-82
2022/01/22 04:38:33;;;;;;;;;;;;;;;4.68;53.55;99233.94;4505385;31;34194;-82
2022/01/22 04:41:00;;;;;;;;;;;;;;;5.05;53.09;99231.03;4502686;31;33423;-82
2022/01/22 04:43:30;;;;;;;;;;;;;;;5.52;52.01;99229.22;4512965;31;34935;-81
2022/01/22 04:56:43;;;;;;;;;;;;;;;5.13;53.85;99216.75;4513313;31;32980;-82
2022/01/22 04:59:10;;;;;;;;;;;;;;;5.91;51.47;99208.19;4511705;31;33964;-82
2022/01/22 05:01:38;;;;;;;;;;;;;;;6.60;49.63;99203.50;4511923;31;34194;-82
2022/01/22 05:04:05;;;;;;;;;;;;;;;6.21;50.49;99208.31;4511030;31;35101;-82
2022/01/22 05:06:35;;;;;;;;;;;;;;;6.63;49.23;99205.25;4505568;31;34306;-82
2022/01/22 05:09:05;;;;;;;;;;;;;;;6.69;49.28;99203.75;4512288;31;34041;-82
2022/01/22 05:11:33;;;;;;;;;;;;;;;6.22;50.32;99213.53;4499363;31;33555;-82
2022/01/22 05:14:01;;;;;;;;;;;;;;;7.16;48.32;99211.94;4503219;31;34078;-82
2022/01/22 05:16:28;;;;;;;;;;;;;;;7.26;47.87;99208.75;4502763;31;33921;-82
2022/01/22 05:19:05;;;;;;;;;;;;;;;6.51;49.71;99210.94;4500811;31;34791;-81
2022/01/22 05:21:37;;;;;;;;;;;;;;;6.80;49.15;99207.50;4506645;31;33089;-82
2022/01/22 05:24:09;;;;;;;;;;;;;;;7.01;48.11;99216.69;4504320;31;34186;-83
2022/01/22 05:37:08;;;;;;;;;;;;;;;7.39;47.65;99215.13;4512123;31;33924;-82
2022/01/22 05:39:36;;;;;;;;;;;;;;;6.18;50.96;99219.41;4509516;31;34771;-83
2022/01/22 05:42:04;;;;;;;;;;;;;;;6.67;49.92;99210.56;4505050;31;34040;-81
2022/01/22 05:44:32;;;;;;;;;;;;;;;7.48;47.64;99211.91;4501155;31;33976;-83
2022/01/22 05:47:03;;;;;;;;;;;;;;;7.31;48.43;99209.78;4512789;31;35356;-83
2022/01/22 05:49:33;;;;;;;;;;;;;;;5.85;51.78;99211.47;4501597;31;33578;-83
2022/01/22 05:52:03;;;;;;;;;;;;;;;6.96;49.45;99207.94;4507236;31;33489;-84
2022/01/22 05:59:46;;;;;;;;;;;;;;;7.86;47.36;99189.62;4500760;31;34466;-83
2022/01/22 06:02:14;;;;;;;;;;;;;;;7.43;48.38;99210.94;4512414;31;33312;-83
2022/01/22 06:04:43;;;;;;;;;;;;;;;7.83;47.26;99206.75;4484070;31;34012;-82
2022/01/22 06:07:10;;;;;;;;;;;;;;;8.33;46.31;99212.22;4506180;31;35342;-82
2022/01/22 06:09:41;;;;;;;;;;;;;;;7.43;48.21;99221.25;4508828;31;33569;-83
2022/01/22 06:14:36;;;;;;;;;;;;;;;6.83;50.10;99211.88;4514871;31;34642;-83
2022/01/22 06:17:04;;;;;;;;;;;;;;;7.26;49.29;99216.50;4512748;31;34407;-82
2022/01/22 06:19:32;;;;;;;;;;;;;;;6.43;51.28;99220.12;4513225;31;34285;-82
2022/01/22 06:22:00;;;;;;;;;;;;;;;6.51;51.08;99214.38;4503946;31;33548;-83
2022/01/22 06:24:28;;;;;;;;;;;;;;;6.51;51.34;99226.38;4505161;31;35015;-82
2022/01/22 06:27:00;;;;;;;;;;;;;;;5.06;55.79;99230.19;4507500;31;33920;-81
2022/01/22 06:29:27;;;;;;;;;;;;;;;5.33;54.90;99233.72;4503846;31;34959;-82
2022/01/22 06:31:54;;;;;;;;;;;;;;;5.72;53.78;99233.34;4503420;31;33125;-83
2022/01/22 06:34:22;;;;;;;;;;;;;;;6.12;52.43;99238.94;4500634;31;33952;-83
2022/01/22 06:36:49;;;;;;;;;;;;;;;6.37;51.50;99243.16;4508565;31;35365;-82
2022/01/22 06:39:19;;;;;;;;;;;;;;;5.49;53.67;99234.25;4511229;31;34857;-82
2022/01/22 06:42:00;;;;;;;;;;;;;;;5.23;54.95;99257.38;4500261;31;34388;-83
2022/01/22 06:44:34;;;;;;;;;;;;;;;5.84;52.89;99251.75;4500226;31;33977;-84
2022/01/22 06:47:02;;;;;;;;;;;;;;;6.36;51.62;99257.69;4507205;31;34032;-84
2022/01/22 06:49:34;;;;;;;;;;;;;;;4.28;57.61;99263.22;4498594;31;34575;-83
2022/01/22 06:52:02;;;;;;;;;;;;;;;5.54;54.58;99256.75;4508493;31;33472;-83
2022/01/22 06:54:30;;;;;;;;;;;;;;;5.06;55.20;99248.19;4514169;31;34168;-82
2022/01/22 06:56:57;;;;;;;;;;;;;;;5.20;53.69;99252.13;4515592;31;34403;-83
2022/01/22 06:59:25;;;;;;;;;;;;;;;5.49;54.11;99244.53;4503340;31;33891;-83
2022/01/22 07:01:54;;;;;;;;;;;;;;;5.48;53.47;99233.38;4502665;31;34103;-81
2022/01/22 07:04:22;;;;;;;;;;;;;;;5.18;54.40;99240.91;4499739;31;34036;-83
2022/01/22 07:06:49;;;;;;;;;;;;;;;6.24;51.40;99240.16;4499854;31;34390;-82
2022/01/22 07:09:17;;;;;;;;;;;;;;;5.76;52.66;99239.47;4511539;31;34944;-82
2022/01/22 07:11:44;;;;;;;;;;;;;;;5.13;54.64;99255.31;4485342;31;32664;-81
2022/01/22 07:14:15;;;;;;;;;;;;;;;5.70;53.15;99260.69;4499863;31;33734;-82
2022/01/22 07:16:42;;;;;;;;;;;;;;;5.21;54.34;99264.16;4508292;31;34918;-83
2022/01/22 07:19:17;;;;;;;;;;;;;;;5.98;52.40;99270.22;4499485;31;34385;-82
2022/01/22 07:21:55;;;;;;;;;;;;;;;6.28;51.30;99277.19;4514800;31;33393;-83
2022/01/22 07:24:23;;;;;;;;;;;;;;;6.40;50.73;99287.00;4482502;31;34381;-83
2022/01/22 07:26:51;;;;;;;;;;;;;;;5.35;53.40;99280.94;4499456;31;34913;-82
2022/01/22 07:29:18;;;;;;;;;;;;;;;5.75;52.29;99295.16;4514642;31;34919;-80
2022/01/22 07:31:46;;;;;;;;;;;;;;;6.21;51.87;99299.31;4503938;31;33328;-81
2022/01/22 07:34:14;;;;;;;;;;;;;;;6.05;52.38;99295.34;4500295;31;34054;-81
2022/01/22 07:36:41;;;;;;;;;;;;;;;6.22;51.65;99302.75;4500047;31;35301;-83
2022/01/22 07:39:08;;;;;;;;;;;;;;;6.15;51.75;99303.38;4499478;31;34246;-83
2022/01/22 07:41:38;;;;;;;;;;;;;;;5.84;52.54;99300.63;4505784;31;33402;-83
2022/01/22 07:44:05;;;;;;;;;;;;;;;6.15;51.67;99296.53;4503250;31;34979;-83
2022/01/22 07:46:37;;;;;;;;;;;;;;;5.08;54.73;99293.69;4499462;31;34427;-82
2022/01/22 07:49:06;;;;;;;;;;;;;;;6.48;51.04;99291.56;4509142;31;33927;-82
2022/01/22 07:51:33;;;;;;;;;;;;;;;5.78;52.68;99292.69;4490152;31;33323;-82
2022/01/22 07:54:01;;;;;;;;;;;;;;;6.13;51.98;99287.00;4499420;31;34081;-83
2022/01/22 07:56:28;;;;;;;;;;;;;;;5.88;52.47;99293.03;4499354;31;35189;-82
2022/01/22 07:58:57;;;;;;;;;;;;;;;6.36;51.05;99290.31;4498198;31;34054;-82
2022/01/22 08:01:24;;;;;;;;;;;;;;;5.86;52.30;99283.53;4502679;31;34094;-82
2022/01/22 08:03:55;;;;;;;;;;;;;;;6.83;50.06;99284.91;4503911;31;34876;-83
2022/01/22 08:06:25;;;;;;;;;;;;;;;7.10;49.23;99275.34;4509018;31;33574;-82
2022/01/22 08:08:58;;;;;;;;;;;;;;;6.28;51.20;99279.75;4499243;31;33579;-83
2022/01/22 08:11:26;;;;;;;;;;;;;;;7.03;49.56;99274.28;4507936;31;33375;-83
2022/01/22 08:13:53;;;;;;;;;;;;;;;6.77;50.00;99284.72;4513786;31;34171;-82
2022/01/22 08:16:21;;;;;;;;;;;;;;;6.57;50.43;99280.66;4513738;31;33882;-82
2022/01/22 08:18:48;;;;;;;;;;;;;;;6.68;50.22;99278.44;4513959;31;34080;-83
2022/01/22 08:21:16;;;;;;;;;;;;;;;7.32;49.18;99281.16;4515082;31;33485;-83
2022/01/22 08:23:55;;;;;;;;;;;;;;;6.01;52.21;99282.31;4491165;31;32394;-83
2022/01/22 08:26:30;;;;;;;;;;;;;;;6.70;49.76;99282.78;4484788;31;35264;-84
2022/01/22 08:29:02;;;;;;;;;;;;;;;6.82;50.03;99288.31;4498946;31;34170;-83
2022/01/22 08:36:45;;;;;;;;;;;;;;;5.67;53.09;99309.47;4498067;31;34278;-82
2022/01/22 08:39:15;;;;;;;;;;;;;;;5.99;51.93;99309.72;4497704;31;33865;-84
2022/01/22 08:41:42;;;;;;;;;;;;;;;5.40;53.74;99329.06;4498091;31;32963;-82
2022/01/22 08:44:12;;;;;;;;;;;;;;;6.23;51.93;99336.25;4499083;31;33899;-83
2022/01/22 08:46:40;;;;;;;;;;;;;;;6.88;50.35;99339.16;4490837;31;33610;-83
2022/01/22 08:49:07;;;;;;;;;;;;;;;6.62;50.84;99348.66;4503623;31;33861;-85
2022/01/22 08:51:38;;;;;;;;;;;;;;;6.87;50.27;99336.53;4514833;31;33338;-82
2022/01/22 08:54:06;;;;;;;;;;;;;;;5.95;52.19;99346.47;4509673;31;35088;-82
2022/01/22 08:56:33;;;;;;;;;;;;;;;5.76;52.81;99340.66;4498887;31;35168;-83
2022/01/22 08:59:01;;;;;;;;;;;;;;;7.66;47.61;99338.81;4498446;31;33565;-87
2022/01/22 09:01:28;;;;;;;;;;;;;;;6.93;49.18;99337.59;4497358;31;34274;-82
2022/01/22 09:03:56;;;;;;;;;;;;;;;6.03;51.81;99355.34;4497410;31;33900;-82
2022/01/22 09:06:24;;;;;;;;;;;;;;;6.34;50.55;99349.50;4497010;31;33565;-84
2022/01/22 09:08:59;;;;;;;;;;;;;;;6.09;51.43;99358.09;4497484;31;33985;-86
2022/01/22 09:11:27;;;;;;;;;;;;;;;5.55;52.48;99361.34;4504035;31;33986;-85
2022/01/22 09:13:55;;;;;;;;;;;;;;;4.43;55.47;99365.62;4509520;31;33676;-84
2022/01/22 09:16:23;;;;;;;;;;;;;;;4.34;55.91;99369.56;4513133;31;35188;-84
2022/01/22 09:18:54;;;;;;;;;;;;;;;4.68;54.51;99378.63;4514443;31;34777;-85
2022/01/22 09:21:21;;;;;;;;;;;;;;;4.69;54.61;99390.66;4505362;31;33551;-85
2022/01/22 09:23:48;;;;;;;;;;;;;;;4.93;54.31;99392.44;4499249;31;33890;-84
2022/01/22 09:26:18;;;;;;;;;;;;;;;3.96;56.24;99393.66;4513340;31;32280;-84
2022/01/22 09:28:47;;;;;;;;;;;;;;;3.81;56.57;99396.44;4503939;31;34270;-82
2022/01/22 09:31:14;;;;;;;;;;;;;;;4.51;55.06;99395.94;4500146;31;33531;-83
2022/01/22 09:33:43;;;;;;;;;;;;;;;4.03;56.14;99405.06;4496834;31;32188;-82
2022/01/22 09:36:12;;;;;;;;;;;;;;;3.31;57.63;99409.59;4500991;31;34523;-83
2022/01/22 09:38:41;;;;;;;;;;;;;;;4.03;56.52;99411.06;4496898;31;33391;-84
2022/01/22 09:41:09;;;;;;;;;;;;;;;4.50;54.71;99413.84;4497723;31;33332;-82
2022/01/22 09:43:37;;;;;;;;;;;;;;;4.83;53.27;99404.03;4500638;31;35019;-82
2022/01/22 09:46:06;;;;;;;;;;;;;;;5.52;51.38;99404.94;4514579;31;35070;-81
2022/01/22 09:48:39;;;;;;;;;;;;;;;4.49;54.39;99419.78;4504702;31;33725;-82
2022/01/22 09:51:07;;;;;;;;;;;;;;;4.94;53.13;99412.19;4500449;31;34036;-84
2022/01/22 09:53:35;;;;;;;;;;;;;;;4.37;53.98;99415.91;4490301;31;32824;-85
2022/01/22 09:56:03;;;;;;;;;;;;;;;4.52;53.43;99417.38;4516086;31;35014;-82
2022/01/22 09:58:30;;;;;;;;;;;;;;;4.58;53.94;99415.03;4514851;31;33812;-82
2022/01/22 10:01:16;;;;;;;;;;;;;;;5.27;52.18;99403.19;4509327;31;33143;-82
2022/01/22 10:03:44;;;;;;;;;;;;;;;5.09;52.55;99415.34;4500183;31;34976;-84
2022/01/22 10:06:13;;;;;;;;;;;;;;;5.08;52.63;99417.03;4495036;31;34424;-83
2022/01/22 10:08:42;;;;;;;;;;;;;;;5.53;50.95;99405.81;4515883;31;34146;-84
2022/01/22 10:11:17;;;;;;;;;;;;;;;5.01;52.28;99414.16;4511237;31;33105;-82
2022/01/22 10:13:47;;;;;;;;;;;;;;;5.39;50.99;99407.03;4514746;31;34363;-82
2022/01/22 10:16:24;;;;;;;;;;;;;;;5.52;50.50;99409.22;4514351;31;34355;-82
2022/01/22 10:19:10;;;;;;;;;;;;;;;5.05;51.68;99416.03;4503080;31;34001;-83
2022/01/22 10:21:39;;;;;;;;;;;;;;;4.57;52.28;99420.97;4499651;31;33396;-82
2022/01/22 10:24:32;;;;;;;;;;;;;;;4.99;52.21;99420.94;4485219;31;34828;-84
2022/01/22 10:27:26;;;;;;;;;;;;;;;4.92;52.38;99424.94;4499933;31;34329;-82
2022/01/22 10:30:02;;;;;;;;;;;;;;;4.83;52.58;99438.31;4499522;31;34180;-83
2022/01/22 10:32:44;;;;;;;;;;;;;;;5.08;51.38;99427.31;4499884;31;33556;-82
2022/01/22 10:35:15;;;;;;;;;;;;;;;5.17;50.95;99429.34;4499671;31;34968;-81
2022/01/22 10:38:04;;;;;;;;;;;;;;;5.20;49.79;99429.47;4498847;31;34194;-82
2022/01/22 10:40:32;;;;;;;;;;;;;;;5.09;50.74;99441.91;4506639;31;33810;-83
2022/01/22 10:43:10;;;;;;;;;;;;;;;4.83;51.27;99433.19;4500074;31;34808;-82
2022/01/22 10:45:41;;;;;;;;;;;;;;;5.59;48.83;99426.62;4499580;31;34146;-83
2022/01/22 10:48:14;;;;;;;;;;;;;;;5.95;48.16;99427.13;4503763;31;35281;-83
2022/01/22 10:50:41;;;;;;;;;;;;;;;6.41;46.62;99431.28;4514608;31;34268;-82
2022/01/22 10:53:09;;;;;;;;;;;;;;;5.23;49.36;99447.59;4515353;31;33076;-83
2022/01/22 10:55:54;;;;;;;;;;;;;;;5.58;48.20;99448.03;4515353;31;34200;-83
2022/01/22 10:58:22;;;;;;;;;;;;;;;5.03;49.22;99444.22;4515053;31;34901;-84
2022/01/22 11:00:57;;;;;;;;;;;;;;;5.27;48.02;99449.47;4514210;31;34787;-81
2022/01/22 11:03:26;;;;;;;;;;;;;;;6.16;46.21;99452.72;4515439;31;33821;-81
2022/01/22 11:05:54;;;;;;;;;;;;;;;5.53;47.69;99462.41;4509613;31;33859;-81
2022/01/22 11:08:21;;;;;;;;;;;;;;;5.66;46.89;99456.03;4498595;31;35343;-82
2022/01/22 11:10:49;;;;;;;;;;;;;;;5.05;47.68;99462.28;4477372;31;33496;-81
2022/01/22 11:13:17;;;;;;;;;;;;;;;5.71;46.94;99469.94;4485821;31;33686;-82
2022/01/22 11:15:44;;;;;;;;;;;;;;;4.38;48.26;99468.13;4485245;31;34459;-82
2022/01/22 11:18:12;;;;;;;;;;;;;;;4.70;47.71;99473.69;4471814;31;33528;-82
2022/01/22 11:20:39;;;;;;;;;;;;;;;5.72;45.67;99470.00;4499274;31;34865;-81
2022/01/22 11:23:06;;;;;;;;;;;;;;;5.06;46.48;99474.31;4514365;31;34240;-83
2022/01/22 11:25:34;;;;;;;;;;;;;;;5.94;44.95;99478.50;4515105;31;35040;-85
2022/01/22 11:28:01;;;;;;;;;;;;;;;5.19;45.73;99481.72;4512400;31;34243;-82
2022/01/22 11:30:28;;;;;;;;;;;;;;;5.18;46.56;99477.34;4499528;31;34945;-82
2022/01/22 11:33:02;;;;;;;;;;;;;;;4.63;46.87;99488.88;4498062;31;32219;-82
2022/01/22 11:35:39;;;;;;;;;;;;;;;5.51;45.26;99484.63;4508809;31;34050;-82
2022/01/22 11:38:10;;;;;;;;;;;;;;;5.59;44.26;99484.09;4498746;31;34301;-82
2022/01/22 11:40:38;;;;;;;;;;;;;;;6.28;42.87;99484.03;4498793;31;33532;-84
2022/01/22 11:43:08;;;;;;;;;;;;;;;5.42;43.43;99489.41;4500887;31;33516;-81
2022/01/22 11:45:46;;;;;;;;;;;;;;;4.93;44.08;99487.50;4498080;31;33526;-82
2022/01/22 11:48:17;;;;;;;;;;;;;;;6.01;42.43;99490.78;4474866;31;34185;-82
2022/01/22 11:50:46;;;;;;;;;;;;;;;4.76;44.00;99497.94;4515171;31;33765;-83
2022/01/22 11:53:27;;;;;;;;;;;;;;;5.37;41.96;99497.81;4500605;31;32340;-84
2022/01/22 11:56:07;;;;;;;;;;;;;;;5.20;42.75;99498.87;4515017;31;34564;-83
2022/01/22 11:58:54;;;;;;;;;;;;;;;5.17;42.48;99488.47;4510636;31;34246;-82
2022/01/22 12:01:52;;;;;;;;;;;;;;;4.99;43.36;99498.00;4508519;31;33709;-82
2022/01/22 12:04:20;;;;;;;;;;;;;;;5.56;41.59;99507.13;4510375;31;33349;-83
2022/01/22 12:07:00;;;;;;;;;;;;;;;5.76;40.43;99507.00;4500329;31;33459;-85
2022/01/22 12:09:30;;;;;;;;;;;;;;;4.82;42.50;99505.91;4498127;31;35329;-83
2022/01/22 12:14:47;;;;;;;;;;;;;;;5.27;40.48;99513.72;4501317;31;33669;-82
2022/01/22 12:17:26;;;;;;;;;;;;;;;4.53;41.84;99519.22;4514475;31;35056;-83
2022/01/22 12:22:35;;;;;;;;;;;;;;;4.95;40.50;99516.69;4503993;31;33698;-83
2022/01/22 12:25:23;;;;;;;;;;;;;;;4.60;42.02;99514.41;4508313;31;32620;-82
2022/01/22 12:27:51;;;;;;;;;;;;;;;5.00;41.13;99516.06;4512167;31;34402;-82
2022/01/22 12:30:36;;;;;;;;;;;;;;;5.19;40.92;99511.66;4511606;31;34847;-82
2022/01/22 12:33:06;;;;;;;;;;;;;;;4.14;42.54;99516.72;4499275;31;33705;-83
2022/01/22 12:35:37;;;;;;;;;;;;;;;4.63;42.01;99516.25;4499266;31;34108;-82
2022/01/22 12:38:19;;;;;;;;;;;;;;;4.36;41.97;99509.12;4498795;31;34082;-81
2022/01/22 12:40:51;;;;;;;;;;;;;;;4.52;42.61;99508.09;4497929;31;34934;-82
2022/01/22 12:43:26;;;;;;;;;;;;;;;5.08;41.28;99499.25;4508601;31;34826;-82
2022/01/22 12:45:56;;;;;;;;;;;;;;;5.37;41.14;99502.97;4488210;31;32731;-84
2022/01/22 12:48:24;;;;;;;;;;;;;;;5.06;40.99;99497.44;4486753;31;33796;-83
2022/01/22 12:50:52;;;;;;;;;;;;;;;5.55;40.86;99502.78;4483496;31;33263;-82
2022/01/22 12:53:22;;;;;;;;;;;;;;;4.57;41.69;99482.59;4473037;31;34235;-83
2022/01/22 12:58:24;;;;;;;;;;;;;;;4.53;40.66;99499.56;4484082;31;34042;-83
2022/01/22 13:00:53;;;;;;;;;;;;;;;4.15;41.42;99515.91;4471495;31;33881;-82
2022/01/22 13:03:34;;;;;;;;;;;;;;;4.05;40.59;99516.28;4493242;31;34761;-84
2022/01/22 13:06:02;;;;;;;;;;;;;;;4.34;39.73;99521.00;4498933;31;32860;-83
2022/01/22 13:08:31;;;;;;;;;;;;;;;3.96;40.72;99532.16;4504656;31;34926;-81
2022/01/22 13:11:01;;;;;;;;;;;;;;;4.29;40.11;99531.91;4513081;31;34478;-82
2022/01/22 13:13:35;;;;;;;;;;;;;;;3.68;40.47;99527.50;4499442;31;32862;-82
2022/01/22 13:16:05;;;;;;;;;;;;;;;3.85;39.82;99524.00;4499761;31;33360;-83
2022/01/22 13:18:40;;;;;;;;;;;;;;;3.81;40.27;99523.78;4512520;31;35011;-85
2022/01/22 13:21:09;;;;;;;;;;;;;;;3.46;40.30;99525.62;4490811;31;33692;-84
2022/01/22 13:23:37;;;;;;;;;;;;;;;3.83;39.38;99522.19;4516016;31;33990;-82
2022/01/22 13:26:04;;;;;;;;;;;;;;;3.73;40.08;99518.31;4506169;31;33386;-85
2022/01/22 13:28:33;;;;;;;;;;;;;;;3.69;40.07;99530.94;4498967;31;34037;-82
2022/01/22 13:31:10;;;;;;;;;;;;;;;3.60;40.48;99541.66;4500061;31;34146;-84
2022/01/22 13:33:47;;;;;;;;;;;;;;;3.78;40.00;99539.91;4498582;31;33767;-82
2022/01/22 13:36:29;;;;;;;;;;;;;;;3.96;40.57;99551.81;4508967;31;33335;-84
2022/01/22 13:39:34;;;;;;;;;;;;;;;3.34;40.47;99543.00;4500247;31;34195;-83
2022/01/22 13:47:44;;;;;;;;;;;;;;;3.64;39.98;99585.44;4474553;31;32455;-82
2022/01/22 13:50:12;;;;;;;;;;;;;;;4.44;38.98;99588.19;4474804;31;33275;-83
2022/01/22 13:52:40;;;;;;;;;;;;;;;4.37;40.00;99597.28;4504433;31;34204;-81
2022/01/22 13:55:07;;;;;;;;;;;;;;;4.33;40.40;99590.25;4501497;31;34112;-84
2022/01/22 13:57:35;;;;;;;;;;;;;;;4.15;41.34;99605.72;4498750;31;33405;-84
2022/01/22 14:00:10;;;;;;;;;;;;;;;4.01;41.30;99606.75;4512217;31;34787;-83
2022/01/22 14:03:05;;;;;;;;;;;;;;;3.86;41.52;99607.84;4514650;31;33604;-84
2022/01/22 14:05:33;;;;;;;;;;;;;;;3.82;42.19;99610.16;4491457;31;34233;-84
2022/01/22 14:08:06;;;;;;;;;;;;;;;3.97;40.78;99602.31;4508210;31;33078;-84
2022/01/22 14:10:34;;;;;;;;;;;;;;;4.08;40.75;99617.38;4502219;31;34583;-83
2022/01/22 14:13:10;;;;;;;;;;;;;;;3.64;42.16;99615.34;4498941;31;34310;-85
2022/01/22 14:15:41;;;;;;;;;;;;;;;4.23;41.58;99624.03;4510779;31;34460;-85
2022/01/22 14:20:43;;;;;;;;;;;;;;;4.27;41.41;99647.31;4507886;31;34149;-85
2022/01/22 14:23:12;;;;;;;;;;;;;;;4.07;41.85;99645.53;4511038;31;34569;-87
2022/01/22 14:25:59;;;;;;;;;;;;;;;3.93;41.51;99654.28;4504041;31;33055;-86
2022/01/22 14:28:40;;;;;;;;;;;;;;;3.95;42.27;99668.06;4506109;31;33407;-85
2022/01/22 14:31:27;;;;;;;;;;;;;;;4.88;40.13;99669.69;4502372;31;34842;-83
2022/01/22 14:33:56;;;;;;;;;;;;;;;4.35;40.98;99692.19;4504716;31;34483;-86
2022/01/22 14:36:24;;;;;;;;;;;;;;;4.55;41.08;99693.09;4500930;31;34851;-86
2022/01/22 14:38:58;;;;;;;;;;;;;;;4.75;40.11;99704.25;4514451;31;33995;-85
2022/01/22 14:46:45;;;;;;;;;;;;;;;4.74;39.38;99722.19;4505651;31;34928;-85
2022/01/22 14:49:15;;;;;;;;;;;;;;;4.73;39.30;99723.84;4504991;31;32867;-84
2022/01/22 14:51:42;;;;;;;;;;;;;;;4.25;40.19;99725.94;4488876;31;34298;-85
2022/01/22 14:54:10;;;;;;;;;;;;;;;5.07;38.87;99733.03;4499284;31;35367;-85
2022/01/22 14:56:37;;;;;;;;;;;;;;;5.40;38.28;99738.75;4502414;31;34225;-83
2022/01/22 14:59:04;;;;;;;;;;;;;;;5.22;38.49;99733.69;4498501;31;32867;-82
2022/01/22 15:01:32;;;;;;;;;;;;;;;6.25;35.89;99744.00;4503770;31;34627;-81
2022/01/22 15:03:59;;;;;;;;;;;;;;;6.16;36.00;99741.03;4504450;31;35435;-82
2022/01/22 15:06:46;;;;;;;;;;;;;;;5.85;36.27;99742.37;4499251;31;33493;-83
2022/01/22 15:09:14;;;;;;;;;;;;;;;5.25;37.39;99754.41;4497780;31;33524;-84
2022/01/22 15:11:41;;;;;;;;;;;;;;;5.81;36.74;99750.78;4488690;31;33842;-85
2022/01/22 15:14:09;;;;;;;;;;;;;;;4.91;38.11;99753.75;4506381;31;34337;-84